createdAt,value
2022-07-26T00:01:38.145Z,1.20
2022-07-26T00:04:05.178Z,1.27
2022-07-26T00:06:31.777Z,1.00
2022-07-26T00:08:58.422Z,1.30
2022-07-26T00:11:25.716Z,1.27
2022-07-26T00:13:52.869Z,1.40
2022-07-26T00:16:19.901Z,1.23
2022-07-26T00:18:47.695Z,1.63
2022-07-26T00:21:14.365Z,1.53
2022-07-26T00:23:41.252Z,1.50
2022-07-26T00:26:07.992Z,1.50
2022-07-26T00:28:34.640Z,1.43
2022-07-26T00:31:03.630Z,1.60
2022-07-26T00:33:30.355Z,1.60
2022-07-26T00:35:57.208Z,1.43
2022-07-26T00:38:24.369Z,1.40
2022-07-26T00:40:51.116Z,1.20
2022-07-26T00:43:17.999Z,1.57
2022-07-26T00:45:44.699Z,1.50
2022-07-26T00:48:11.376Z,1.20
2022-07-26T00:50:38.163Z,1.70
2022-07-26T00:53:05.011Z,1.70
2022-07-26T00:55:31.698Z,1.33
2022-07-26T00:58:01.088Z,1.70
2022-07-26T01:00:28.567Z,1.30
2022-07-26T01:02:56.416Z,1.47
2022-07-26T01:05:24.126Z,1.57
2022-07-26T01:07:52.108Z,1.30
2022-07-26T01:10:18.848Z,1.53
2022-07-26T01:12:46.289Z,1.40
2022-07-26T01:15:14.835Z,1.40
2022-07-26T01:17:41.852Z,1.40
2022-07-26T01:20:10.139Z,1.70
2022-07-26T01:22:36.941Z,1.30
2022-07-26T01:25:04.864Z,1.70
2022-07-26T01:27:34.085Z,1.30
2022-07-26T01:30:01.043Z,1.67
2022-07-26T01:32:27.669Z,1.57
2022-07-26T01:34:54.589Z,1.43
2022-07-26T01:37:21.188Z,1.40
2022-07-26T01:39:47.814Z,1.43
2022-07-26T01:42:14.494Z,1.50
2022-07-26T01:44:41.114Z,1.63
2022-07-26T01:47:08.218Z,1.93
2022-07-26T01:49:34.851Z,1.50
2022-07-26T01:52:01.490Z,1.90
2022-07-26T01:54:28.149Z,1.83
2022-07-26T01:56:54.775Z,1.40
2022-07-26T01:59:21.412Z,1.40
2022-07-26T02:01:48.103Z,1.60
2022-07-26T02:04:33.702Z,1.73
2022-07-26T02:07:00.578Z,1.87
2022-07-26T02:09:32.024Z,1.90
2022-07-26T02:12:05.079Z,1.30
2022-07-26T02:14:31.734Z,2.40
2022-07-26T02:17:00.326Z,1.77
2022-07-26T02:19:30.552Z,1.67
2022-07-26T02:21:57.338Z,2.20
2022-07-26T02:24:27.156Z,2.23
2022-07-26T02:26:53.803Z,1.80
2022-07-26T02:29:20.427Z,1.80
2022-07-26T02:31:48.345Z,1.87
2022-07-26T02:34:15.775Z,1.63
2022-07-26T02:36:42.454Z,1.50
2022-07-26T02:39:09.437Z,2.00
2022-07-26T02:41:36.171Z,1.97
2022-07-26T02:44:02.834Z,2.43
2022-07-26T02:46:29.826Z,2.07
2022-07-26T02:48:56.733Z,1.80
2022-07-26T02:51:23.595Z,2.10
2022-07-26T02:53:50.206Z,2.00
2022-07-26T02:56:16.877Z,2.37
2022-07-26T02:58:43.542Z,1.93
2022-07-26T03:01:10.336Z,2.70
2022-07-26T03:03:36.981Z,2.13
2022-07-26T03:06:05.378Z,2.07
2022-07-26T03:08:32.105Z,2.17
2022-07-26T03:10:59.952Z,2.33
2022-07-26T03:13:26.590Z,2.63
2022-07-26T03:15:53.273Z,1.63
2022-07-26T03:18:19.945Z,2.20
2022-07-26T03:20:47.967Z,2.70
2022-07-26T03:23:14.654Z,2.37
2022-07-26T03:25:41.374Z,1.90
2022-07-26T03:28:07.997Z,2.27
2022-07-26T03:30:35.204Z,2.57
2022-07-26T03:33:02.194Z,2.47
2022-07-26T03:35:28.876Z,2.50
2022-07-26T03:37:55.500Z,2.00
2022-07-26T03:40:22.328Z,1.90
2022-07-26T03:42:49.060Z,2.43
2022-07-26T03:45:16.324Z,2.40
2022-07-26T03:47:43.530Z,2.13
2022-07-26T03:50:11.180Z,2.77
2022-07-26T03:52:37.981Z,2.70
2022-07-26T03:55:25.104Z,2.30
2022-07-26T03:57:51.842Z,2.53
2022-07-26T04:00:18.602Z,2.20
2022-07-26T04:02:46.474Z,2.60
2022-07-26T04:05:13.265Z,3.40
2022-07-26T04:07:49.916Z,2.87
2022-07-26T04:10:21.769Z,2.30
2022-07-26T04:12:48.955Z,3.00
2022-07-26T04:15:16.936Z,2.57
2022-07-26T04:17:43.949Z,2.87
2022-07-26T04:20:12.386Z,2.30
2022-07-26T04:22:39.943Z,3.00
2022-07-26T04:25:08.095Z,2.33
2022-07-26T04:27:35.214Z,2.60
2022-07-26T04:30:01.862Z,2.80
2022-07-26T04:32:28.490Z,2.77
2022-07-26T04:34:55.266Z,2.50
2022-07-26T04:37:21.890Z,2.63
2022-07-26T04:39:53.058Z,2.57
2022-07-26T04:42:21.673Z,3.00
2022-07-26T04:44:48.282Z,3.53
2022-07-26T04:47:14.926Z,3.00
2022-07-26T04:49:41.531Z,2.90
2022-07-26T04:52:08.138Z,2.93
2022-07-26T04:54:34.755Z,3.27
2022-07-26T04:57:01.419Z,2.73
2022-07-26T04:59:28.107Z,2.83
2022-07-26T05:01:59.483Z,3.00
2022-07-26T05:04:26.375Z,2.90
2022-07-26T05:06:53.149Z,3.50
2022-07-26T05:09:19.783Z,3.07
2022-07-26T05:11:46.488Z,4.00
2022-07-26T05:14:13.099Z,3.20
2022-07-26T05:16:41.040Z,3.90
2022-07-26T05:19:11.138Z,3.33
2022-07-26T05:21:37.737Z,3.70
2022-07-26T05:24:04.818Z,4.07
2022-07-26T05:26:34.746Z,3.53
2022-07-26T05:29:01.501Z,3.80
2022-07-26T05:31:28.199Z,3.37
2022-07-26T05:33:55.262Z,3.70
2022-07-26T05:36:22.079Z,3.47
2022-07-26T05:38:48.727Z,4.53
2022-07-26T05:41:15.359Z,3.53
2022-07-26T05:43:42.327Z,3.73
2022-07-26T05:46:10.586Z,3.77
2022-07-26T05:48:37.986Z,4.07
2022-07-26T05:51:04.766Z,4.23
2022-07-26T05:53:31.359Z,3.77
2022-07-26T05:55:57.981Z,4.23
2022-07-26T05:58:24.595Z,4.17
2022-07-26T06:00:51.359Z,4.40
2022-07-26T06:03:24.038Z,5.17
2022-07-26T06:05:56.592Z,4.27
2022-07-26T06:08:25.468Z,4.47
2022-07-26T06:10:52.874Z,4.87
2022-07-26T06:13:19.492Z,4.37
2022-07-26T06:15:46.793Z,4.90
2022-07-26T06:18:14.040Z,4.63
2022-07-26T06:20:42.113Z,4.90
2022-07-26T06:23:09.242Z,5.87
2022-07-26T06:25:35.989Z,5.13
2022-07-26T06:28:04.226Z,5.17
2022-07-26T06:30:31.022Z,4.90
2022-07-26T06:32:57.874Z,5.10
2022-07-26T06:35:24.733Z,4.83
2022-07-26T06:37:51.353Z,5.50
2022-07-26T06:40:18.006Z,5.83
2022-07-26T06:42:44.628Z,5.40
2022-07-26T06:45:11.531Z,5.10
2022-07-26T06:47:38.181Z,4.47
2022-07-26T06:50:05.718Z,4.30
2022-07-26T06:52:35.622Z,4.90
2022-07-26T06:55:03.659Z,4.33
2022-07-26T06:57:30.410Z,4.83
2022-07-26T06:59:57.300Z,4.90
2022-07-26T07:02:23.898Z,4.30
2022-07-26T07:04:50.534Z,4.40
2022-07-26T07:07:17.189Z,4.63
2022-07-26T07:09:43.829Z,4.00
2022-07-26T07:12:10.884Z,5.30
2022-07-26T07:14:39.141Z,4.20
2022-07-26T07:17:12.137Z,4.67
2022-07-26T07:19:40.922Z,5.33
2022-07-26T07:22:11.565Z,4.60
2022-07-26T07:24:39.114Z,4.23
2022-07-26T07:27:06.175Z,3.97
2022-07-26T07:29:33.929Z,3.97
2022-07-26T07:32:00.816Z,3.83
2022-07-26T07:34:30.307Z,3.73
2022-07-26T07:36:57.523Z,4.03
2022-07-26T07:39:34.575Z,3.83
2022-07-26T07:42:05.511Z,3.73
2022-07-26T07:44:32.128Z,4.77
2022-07-26T07:46:58.784Z,3.87
2022-07-26T07:49:25.549Z,3.93
2022-07-26T07:51:52.291Z,3.90
2022-07-26T07:54:18.938Z,4.40
2022-07-26T07:56:48.975Z,4.13
2022-07-26T07:59:15.637Z,4.70
2022-07-26T08:01:42.359Z,4.60
2022-07-26T08:04:11.782Z,4.70
2022-07-26T08:06:40.780Z,3.80
2022-07-26T08:09:09.282Z,4.27
2022-07-26T08:11:41.828Z,3.40
2022-07-26T08:14:09.467Z,3.87
2022-07-26T08:16:36.340Z,3.97
2022-07-26T08:19:03.410Z,3.67
2022-07-26T08:21:30.531Z,3.90
2022-07-26T08:23:57.559Z,3.77
2022-07-26T08:26:25.332Z,3.27
2022-07-26T08:28:59.268Z,4.00
2022-07-26T08:31:27.851Z,3.90
2022-07-26T08:33:54.649Z,3.60
2022-07-26T08:36:21.451Z,3.90
2022-07-26T08:38:48.495Z,3.63
2022-07-26T08:41:17.699Z,3.63
2022-07-26T08:43:51.558Z,4.30
2022-07-26T08:46:26.353Z,3.57
2022-07-26T08:48:58.030Z,3.37
2022-07-26T08:51:26.100Z,3.27
2022-07-26T08:53:59.315Z,3.73
2022-07-26T08:56:30.564Z,3.40
2022-07-26T08:58:57.273Z,3.58
2022-07-26T09:01:24.230Z,3.13
2022-07-26T09:03:51.100Z,2.88
2022-07-26T09:06:20.371Z,2.90
2022-07-26T09:08:51.787Z,2.50
2022-07-26T09:11:24.512Z,2.35
2022-07-26T09:13:56.377Z,2.65
2022-07-26T09:16:23.693Z,2.95
2022-07-26T09:18:50.502Z,2.88
2022-07-26T09:21:37.949Z,2.63
2022-07-26T09:24:05.014Z,2.80
2022-07-26T09:26:31.719Z,2.55
2022-07-26T09:29:07.806Z,2.38
2022-07-26T09:31:36.247Z,2.47
2022-07-26T09:34:04.455Z,2.58
2022-07-26T09:36:31.803Z,2.72
2022-07-26T09:39:01.470Z,2.00
2022-07-26T09:41:29.974Z,2.45
2022-07-26T09:44:00.471Z,2.00
2022-07-26T09:46:31.618Z,2.45
2022-07-26T09:49:19.873Z,2.60
2022-07-26T09:51:48.921Z,2.63
2022-07-26T09:54:30.980Z,2.42
2022-07-26T09:56:57.879Z,2.83
2022-07-26T09:59:26.858Z,2.60
2022-07-26T10:01:55.384Z,2.88
2022-07-26T10:04:22.408Z,2.63
2022-07-26T10:06:49.866Z,2.55
2022-07-26T10:09:18.244Z,3.28
2022-07-26T10:11:52.408Z,2.95
2022-07-26T10:14:39.990Z,2.95
2022-07-26T10:17:30.839Z,3.15
2022-07-26T10:20:01.671Z,3.90
2022-07-26T10:22:34.044Z,3.47
2022-07-26T10:25:19.134Z,4.28
2022-07-26T10:27:54.752Z,5.28
2022-07-26T10:30:33.818Z,5.28
2022-07-26T10:33:10.235Z,5.63
2022-07-26T10:35:38.830Z,6.23
2022-07-26T10:38:10.872Z,6.47
2022-07-26T10:40:39.599Z,7.17
2022-07-26T10:43:39.693Z,7.13
2022-07-26T10:46:30.897Z,6.50
2022-07-26T10:49:08.731Z,5.40
2022-07-26T10:51:37.608Z,5.17
2022-07-26T10:54:06.663Z,4.72
2022-07-26T10:56:34.222Z,4.18
2022-07-26T10:59:01.694Z,3.30
2022-07-26T11:01:42.861Z,2.10
2022-07-26T11:04:19.690Z,2.17
2022-07-26T11:06:46.481Z,2.90
2022-07-26T11:09:13.613Z,2.73
2022-07-26T11:11:46.322Z,2.47
2022-07-26T11:14:15.755Z,2.60
2022-07-26T11:16:45.960Z,2.63
2022-07-26T11:19:23.188Z,2.80
2022-07-26T11:21:55.656Z,2.50
2022-07-26T11:24:22.422Z,2.20
2022-07-26T11:26:50.069Z,2.20
2022-07-26T11:29:38.217Z,2.42
2022-07-26T11:32:14.619Z,1.92
2022-07-26T11:34:45.274Z,1.77
2022-07-26T11:37:12.336Z,2.53
2022-07-26T11:39:39.084Z,2.80
2022-07-26T11:42:08.778Z,1.90
2022-07-26T11:44:36.216Z,2.40
2022-07-26T11:47:16.655Z,2.10
2022-07-26T11:50:01.434Z,2.33
2022-07-26T11:52:31.747Z,2.63
2022-07-26T11:54:58.899Z,2.35
2022-07-26T11:57:30.917Z,2.38
2022-07-26T11:59:58.661Z,2.20
2022-07-26T12:02:26.255Z,1.90
2022-07-26T12:05:18.193Z,2.03
2022-07-26T12:07:59.011Z,1.85
2022-07-26T12:10:27.117Z,1.85
2022-07-26T12:13:16.286Z,1.85
2022-07-26T12:15:51.769Z,1.75
2022-07-26T12:18:36.842Z,1.33
2022-07-26T12:21:08.916Z,1.67
2022-07-26T12:23:42.113Z,1.70
2022-07-26T12:26:25.794Z,1.63
2022-07-26T12:28:53.042Z,1.85
2022-07-26T12:31:30.902Z,1.63
2022-07-26T12:33:58.467Z,1.33
2022-07-26T12:36:28.510Z,1.73
2022-07-26T12:39:00.312Z,1.20
2022-07-26T12:41:36.523Z,1.65
2022-07-26T12:44:05.152Z,1.60
2022-07-26T12:46:33.698Z,1.70
2022-07-26T12:49:01.038Z,1.63
2022-07-26T12:51:28.200Z,1.20
2022-07-26T12:53:54.916Z,0.98
2022-07-26T12:56:21.555Z,0.95
2022-07-26T12:58:48.202Z,1.20
2022-07-26T13:01:14.988Z,1.08
2022-07-26T13:03:41.653Z,1.30
2022-07-26T13:06:08.421Z,0.93
2022-07-26T13:08:35.079Z,1.27
2022-07-26T13:11:01.748Z,1.38
2022-07-26T13:13:29.730Z,1.60
2022-07-26T13:15:56.353Z,1.60
2022-07-26T13:18:22.969Z,1.90
2022-07-26T13:20:49.625Z,1.60
2022-07-26T13:23:17.874Z,1.42
2022-07-26T13:25:48.143Z,1.50
2022-07-26T13:28:15.761Z,1.50
2022-07-26T13:30:43.546Z,1.45
2022-07-26T13:33:11.002Z,1.80
2022-07-26T13:35:41.148Z,1.75
2022-07-26T13:38:08.540Z,1.67
2022-07-26T13:40:35.278Z,1.30
2022-07-26T13:43:01.989Z,1.40
2022-07-26T13:45:29.526Z,1.17
2022-07-26T13:47:57.701Z,1.15
2022-07-26T13:50:27.136Z,1.20
2022-07-26T13:52:55.665Z,1.00
2022-07-26T13:55:22.554Z,1.20
2022-07-26T13:57:55.848Z,1.10
2022-07-26T14:00:27.903Z,0.90
2022-07-26T14:02:59.585Z,1.00
2022-07-26T14:05:27.682Z,1.35
2022-07-26T14:07:55.246Z,1.38
2022-07-26T14:10:23.280Z,1.48
2022-07-26T14:12:50.248Z,1.10
2022-07-26T14:15:22.259Z,1.40
2022-07-26T14:17:51.225Z,1.25
2022-07-26T14:20:18.176Z,1.00
2022-07-26T14:22:45.135Z,1.00
2022-07-26T14:25:12.175Z,0.90
2022-07-26T14:27:38.952Z,1.15
2022-07-26T14:30:06.506Z,0.95
2022-07-26T14:32:33.322Z,0.82
2022-07-26T14:35:00.000Z,0.90
2022-07-26T14:37:43.135Z,1.10
2022-07-26T14:40:17.619Z,0.82
2022-07-26T14:42:45.766Z,0.90
2022-07-26T14:45:13.492Z,1.10
2022-07-26T14:47:40.174Z,1.05
2022-07-26T14:50:08.554Z,0.90
2022-07-26T14:52:54.565Z,0.90
2022-07-26T14:55:25.321Z,1.00
2022-07-26T14:57:52.295Z,0.80
2022-07-26T15:00:19.073Z,0.98
2022-07-26T15:02:48.913Z,0.57
2022-07-26T15:05:16.838Z,0.80
2022-07-26T15:07:43.735Z,1.05
2022-07-26T15:10:12.922Z,1.30
2022-07-26T15:12:40.023Z,1.00
2022-07-26T15:15:08.058Z,0.90
2022-07-26T15:17:35.444Z,0.70
2022-07-26T15:20:03.719Z,0.75
2022-07-26T15:22:30.335Z,0.80
2022-07-26T15:24:56.993Z,0.80
2022-07-26T15:27:23.643Z,0.80
2022-07-26T15:29:51.187Z,0.95
2022-07-26T15:32:19.628Z,0.90
2022-07-26T15:34:46.352Z,0.93
2022-07-26T15:37:13.084Z,0.90
2022-07-26T15:39:39.749Z,0.80
2022-07-26T15:42:07.884Z,0.80
2022-07-26T15:44:37.699Z,0.80
2022-07-26T15:47:04.567Z,0.60
2022-07-26T15:49:31.228Z,0.70
2022-07-26T15:51:57.897Z,0.85
2022-07-26T15:54:24.689Z,0.60
2022-07-26T15:56:51.343Z,0.77
2022-07-26T15:59:17.995Z,1.00
2022-07-26T16:01:44.698Z,1.10
2022-07-26T16:04:11.916Z,0.95
2022-07-26T16:06:39.091Z,0.73
2022-07-26T16:09:17.399Z,0.70
2022-07-26T16:11:45.714Z,0.80
2022-07-26T16:14:12.430Z,0.82
2022-07-26T16:16:39.084Z,0.80
2022-07-26T16:19:05.808Z,0.77
2022-07-26T16:21:32.632Z,0.88
2022-07-26T16:24:04.395Z,0.60
2022-07-26T16:26:33.403Z,0.60
2022-07-26T16:29:00.630Z,0.60
2022-07-26T16:31:27.586Z,0.65
2022-07-26T16:33:54.278Z,0.70
2022-07-26T16:36:20.897Z,0.80
2022-07-26T16:38:47.496Z,1.10
2022-07-26T16:41:14.094Z,1.13
2022-07-26T16:43:40.766Z,0.90
2022-07-26T16:46:07.425Z,0.70
2022-07-26T16:48:34.108Z,0.98
2022-07-26T16:51:00.797Z,1.13
2022-07-26T16:53:28.034Z,1.05
2022-07-26T16:55:54.726Z,1.00
2022-07-26T16:58:22.599Z,1.00
2022-07-26T17:00:49.329Z,1.00
2022-07-26T17:03:16.180Z,1.20
2022-07-26T17:05:43.704Z,1.20
2022-07-26T17:08:10.502Z,1.05
2022-07-26T17:10:37.237Z,1.02
2022-07-26T17:13:04.111Z,0.88
2022-07-26T17:15:30.730Z,1.35
2022-07-26T17:17:57.430Z,0.80
2022-07-26T17:20:24.054Z,1.10
2022-07-26T17:22:50.698Z,0.80
2022-07-26T17:25:17.323Z,0.77
2022-07-26T17:27:43.996Z,1.15
2022-07-26T17:30:11.406Z,1.02
2022-07-26T17:32:38.418Z,0.77
2022-07-26T17:35:06.631Z,0.80
2022-07-26T17:37:36.701Z,0.80
2022-07-26T17:40:07.946Z,0.97
2022-07-26T17:42:35.711Z,1.10
2022-07-26T17:45:02.716Z,1.30
2022-07-26T17:47:30.446Z,0.93
2022-07-26T17:50:34.697Z,1.27
2022-07-26T17:52:50.363Z,1.30
2022-07-26T17:55:18.858Z,1.27
2022-07-26T17:57:46.393Z,1.10
2022-07-26T18:00:13.958Z,1.02
2022-07-26T18:02:41.064Z,1.13
2022-07-26T18:05:08.218Z,0.80
2022-07-26T18:07:34.942Z,1.20
2022-07-26T18:10:01.798Z,0.97
2022-07-26T18:12:30.389Z,1.00
2022-07-26T18:14:57.232Z,1.03
2022-07-26T18:17:23.831Z,1.37
2022-07-26T18:19:50.639Z,1.07
2022-07-26T18:22:17.230Z,1.30
2022-07-26T18:24:43.863Z,1.00
2022-07-26T18:27:10.446Z,0.87
2022-07-26T18:29:37.106Z,2.07
2022-07-26T18:32:03.786Z,1.33
2022-07-26T18:34:30.423Z,1.13
2022-07-26T18:36:57.067Z,0.93
2022-07-26T18:39:23.748Z,1.13
2022-07-26T18:41:50.367Z,1.23
2022-07-26T18:44:16.979Z,1.23
2022-07-26T18:46:43.700Z,1.27
2022-07-26T18:49:19.755Z,1.10
2022-07-26T18:51:48.532Z,0.97
2022-07-26T18:54:15.981Z,1.20
2022-07-26T18:56:42.632Z,1.40
2022-07-26T18:59:09.711Z,1.20
2022-07-26T19:01:36.683Z,1.50
2022-07-26T19:04:06.746Z,1.50
2022-07-26T19:06:34.635Z,1.53
2022-07-26T19:09:01.336Z,1.50
2022-07-26T19:11:29.502Z,2.63
2022-07-26T19:13:56.141Z,2.00
2022-07-26T19:16:23.098Z,1.70
2022-07-26T19:18:53.798Z,1.50
2022-07-26T19:21:24.142Z,1.70
2022-07-26T19:23:50.811Z,1.73
2022-07-26T19:26:17.570Z,1.73
2022-07-26T19:28:44.177Z,1.80
2022-07-26T19:31:10.863Z,1.87
2022-07-26T19:33:37.510Z,2.13
2022-07-26T19:36:04.263Z,1.50
2022-07-26T19:38:32.787Z,2.07
2022-07-26T19:41:00.172Z,1.77
2022-07-26T19:43:27.022Z,1.60
2022-07-26T19:45:53.698Z,2.07
2022-07-26T19:48:23.043Z,2.33
2022-07-26T19:50:51.197Z,1.90
2022-07-26T19:53:17.951Z,2.83
2022-07-26T19:55:44.569Z,1.90
2022-07-26T19:58:11.295Z,2.50
2022-07-26T20:00:38.041Z,1.80
2022-07-26T20:03:04.736Z,2.23
2022-07-26T20:05:31.624Z,2.30
2022-07-26T20:07:59.990Z,2.23
2022-07-26T20:10:31.798Z,3.30
2022-07-26T20:12:59.465Z,1.80
2022-07-26T20:15:26.198Z,1.90
2022-07-26T20:17:52.893Z,1.80
2022-07-26T20:20:19.996Z,2.13
2022-07-26T20:22:46.933Z,2.00
2022-07-26T20:25:18.073Z,1.80
2022-07-26T20:27:49.774Z,2.17
2022-07-26T20:30:16.849Z,2.00
2022-07-26T20:32:44.069Z,2.30
2022-07-26T20:35:10.700Z,2.57
2022-07-26T20:37:37.691Z,2.70
2022-07-26T20:40:05.487Z,2.53
2022-07-26T20:42:35.036Z,1.93
2022-07-26T20:45:02.141Z,2.20
2022-07-26T20:47:28.798Z,2.40
2022-07-26T20:49:59.650Z,2.30
2022-07-26T20:52:29.417Z,2.30
2022-07-26T20:54:56.062Z,2.27
2022-07-26T20:57:23.448Z,3.00
2022-07-26T20:59:50.073Z,2.70
2022-07-26T21:02:16.936Z,2.80
2022-07-26T21:04:43.854Z,2.43
2022-07-26T21:07:10.483Z,2.20
2022-07-26T21:09:37.322Z,1.50
2022-07-26T21:12:04.203Z,1.40
2022-07-26T21:14:30.830Z,1.77
2022-07-26T21:16:57.576Z,1.67
2022-07-26T21:19:24.255Z,1.23
2022-07-26T21:21:52.214Z,1.10
2022-07-26T21:24:20.108Z,1.20
2022-07-26T21:26:46.817Z,1.03
2022-07-26T21:29:13.816Z,1.47
2022-07-26T21:31:40.798Z,1.27
2022-07-26T21:34:07.482Z,1.23
2022-07-26T21:36:37.849Z,1.57
2022-07-26T21:39:04.523Z,1.47
2022-07-26T21:41:31.195Z,1.43
2022-07-26T21:43:57.820Z,1.20
2022-07-26T21:46:25.682Z,1.30
2022-07-26T21:48:52.447Z,1.20
2022-07-26T21:51:19.159Z,1.20
2022-07-26T21:53:45.785Z,1.50
2022-07-26T21:56:12.456Z,1.10
2022-07-26T21:58:39.515Z,1.20
2022-07-26T22:01:07.669Z,1.10
2022-07-26T22:03:35.459Z,1.20
2022-07-26T22:06:02.221Z,1.33
2022-07-26T22:08:28.967Z,1.40
2022-07-26T22:10:55.600Z,0.97
2022-07-26T22:13:22.462Z,1.27
2022-07-26T22:15:49.143Z,1.03
2022-07-26T22:18:15.947Z,1.40
2022-07-26T22:20:42.962Z,1.30
2022-07-26T22:23:11.579Z,1.73
2022-07-26T22:25:39.262Z,1.53
2022-07-26T22:28:08.223Z,1.30
2022-07-26T22:30:35.654Z,1.17
2022-07-26T22:33:04.618Z,1.43
2022-07-26T22:35:36.510Z,1.10
2022-07-26T22:38:09.076Z,1.13
2022-07-26T22:40:37.455Z,1.57
2022-07-26T22:43:04.535Z,1.20
2022-07-26T22:45:32.033Z,1.30
2022-07-26T22:47:58.894Z,1.10
2022-07-26T22:50:25.633Z,1.40
2022-07-26T22:52:52.705Z,1.23
2022-07-26T22:55:19.611Z,1.30
2022-07-26T22:57:46.597Z,1.30
2022-07-26T23:00:15.230Z,1.27
2022-07-26T23:02:42.205Z,1.67
2022-07-26T23:05:10.127Z,1.13
2022-07-26T23:07:37.417Z,1.67
2022-07-26T23:10:05.443Z,1.83
2022-07-26T23:12:32.293Z,1.40
2022-07-26T23:14:58.940Z,1.50
2022-07-26T23:17:25.534Z,1.37
2022-07-26T23:19:52.144Z,1.53
2022-07-26T23:22:18.854Z,1.23
2022-07-26T23:24:45.462Z,1.30
2022-07-26T23:27:14.386Z,1.43
2022-07-26T23:29:44.738Z,1.50
2022-07-26T23:32:12.747Z,1.60
2022-07-26T23:34:39.597Z,1.63
2022-07-26T23:37:06.255Z,1.27
2022-07-26T23:39:32.934Z,1.30
2022-07-26T23:42:02.654Z,1.73
2022-07-26T23:44:32.542Z,1.67
2022-07-26T23:46:59.686Z,1.10
2022-07-26T23:49:26.463Z,1.70
2022-07-26T23:51:53.473Z,1.47
2022-07-26T23:54:20.175Z,1.80
2022-07-26T23:56:47.422Z,1.43
2022-07-26T23:59:14.567Z,1.33
